Time;durP1;ratioP1;P1;durP2;ratioP2;P2;SDS_P1;SDS_P2;PMS_P1;PMS_P2;Temp;Humidity;BMP_temperature;BMP_pressure;BME280_temperature;BME280_humidity;BME280_pressure;Samples;Min_cycle;Max_cycle;Signal;HPM_P1;HPM_P2
2022/01/26 00:06:46;;;;;;;4.97;1.50;;;24.20;99.90;;;;;;4987975;28;20626;-70
2022/01/26 00:09:14;;;;;;;5.30;1.35;;;24.00;99.90;;;;;;4986092;28;20026;-74
2022/01/26 00:11:42;;;;;;;3.67;0.80;;;23.80;99.90;;;;;;4987129;28;20033;-72
2022/01/26 00:14:13;;;;;;;5.22;1.00;;;23.60;99.90;;;;;;4985817;28;20054;-72
2022/01/26 00:16:42;;;;;;;8.77;1.35;;;23.60;99.90;;;;;;4985459;28;20030;-77
2022/01/26 00:19:46;;;;;;;4.80;1.35;;;23.90;99.90;;;;;;4986698;28;20211;-71
2022/01/26 00:22:03;;;;;;;2.05;0.90;;;24.10;99.90;;;;;;4987741;28;20142;-72
2022/01/26 00:27:20;;;;;;;6.55;1.10;;;24.10;99.90;;;;;;4981904;28;20407;-75
2022/01/26 00:29:59;;;;;;;3.58;1.08;;;24.00;99.90;;;;;;4988430;28;20022;-74
2022/01/26 00:40:52;;;;;;;2.42;0.88;;;23.30;99.90;;;;;;4987604;28;20673;-71
2022/01/26 00:43:26;;;;;;;3.60;0.52;;;23.30;99.90;;;;;;4988178;28;20042;-76
2022/01/26 00:45:58;;;;;;;4.72;0.98;;;23.20;99.90;;;;;;4986162;28;20026;-78
2022/01/26 00:48:30;;;;;;;4.97;1.63;;;23.40;99.90;;;;;;4981363;28;20042;-73
2022/01/26 00:51:03;;;;;;;3.60;1.10;;;23.50;99.90;;;;;;4987464;28;20097;-72
2022/01/26 00:53:34;;;;;;;4.10;0.82;;;23.50;99.90;;;;;;4980852;28;21942;-70
2022/01/26 00:56:04;;;;;;;2.50;0.80;;;23.50;99.90;;;;;;4990067;28;20034;-71
2022/01/26 00:58:32;;;;;;;3.55;0.90;;;23.80;99.90;;;;;;4995504;28;20077;-72
2022/01/26 01:01:02;;;;;;;8.07;1.17;;;24.00;99.90;;;;;;4995552;28;20026;-71
2022/01/26 01:03:32;;;;;;;3.92;0.95;;;24.00;99.90;;;;;;4994686;28;20034;-73
2022/01/26 01:06:09;;;;;;;5.40;0.60;;;24.00;99.90;;;;;;4995588;28;20076;-71
2022/01/26 01:08:39;;;;;;;4.47;1.02;;;24.10;99.90;;;;;;4994481;28;20372;-72
2022/01/26 01:11:08;;;;;;;3.10;0.60;;;24.80;99.90;;;;;;4991664;28;20026;-72
2022/01/26 01:13:39;;;;;;;4.13;0.63;;;25.30;99.90;;;;;;4981537;28;20109;-74
2022/01/26 01:16:10;;;;;;;4.10;0.70;;;25.30;99.90;;;;;;4983199;28;20015;-73
2022/01/26 01:26:51;;;;;;;4.63;0.88;;;25.00;99.90;;;;;;4985808;28;19976;-74
2022/01/26 01:29:26;;;;;;;1.85;0.63;;;25.20;99.90;;;;;;4985803;28;20550;-80
2022/01/26 01:31:58;;;;;;;6.82;1.08;;;25.60;99.90;;;;;;4985613;28;20019;-72
2022/01/26 01:34:40;;;;;;;2.58;0.80;;;25.60;99.90;;;;;;4985576;28;20479;-76
2022/01/26 01:37:14;;;;;;;5.65;1.02;;;25.40;99.90;;;;;;4984540;28;20077;-78
2022/01/26 01:39:42;;;;;;;3.78;0.73;;;25.80;99.90;;;;;;4985640;28;20022;-78
2022/01/26 01:42:10;;;;;;;2.40;0.70;;;25.90;99.90;;;;;;4985001;28;20361;-71
2022/01/26 01:44:39;;;;;;;2.10;0.47;;;25.70;99.90;;;;;;4983242;28;20061;-72
2022/01/26 01:47:07;;;;;;;3.45;1.00;;;25.60;99.90;;;;;;4983581;28;20027;-76
2022/01/26 01:49:37;;;;;;;8.38;0.95;;;25.80;99.90;;;;;;4981403;28;20105;-71
2022/01/26 01:52:12;;;;;;;3.42;1.15;;;25.70;99.90;;;;;;4981324;28;20503;-71
2022/01/26 01:54:44;;;;;;;3.13;0.60;;;25.60;99.90;;;;;;4980533;28;20016;-74
2022/01/26 01:57:12;;;;;;;6.03;1.08;;;25.70;99.90;;;;;;4985119;28;20473;-76
2022/01/26 01:59:40;;;;;;;2.63;0.82;;;25.50;99.90;;;;;;4983841;28;20026;-77
2022/01/26 02:02:09;;;;;;;3.85;1.05;;;25.20;99.90;;;;;;4983479;28;20018;-79
2022/01/26 02:04:36;;;;;;;4.80;0.80;;;25.20;99.90;;;;;;4984832;28;20054;-72
2022/01/26 02:07:04;;;;;;;8.85;1.27;;;25.40;99.90;;;;;;4984261;28;20022;-75
2022/01/26 02:09:32;;;;;;;3.95;1.08;;;25.50;99.90;;;;;;4983064;28;20023;-72
2022/01/26 02:12:02;;;;;;;4.03;0.70;;;25.60;99.90;;;;;;4984506;28;20553;-72
2022/01/26 02:14:37;;;;;;;1.75;0.60;;;25.30;99.90;;;;;;4985033;28;20023;-72
2022/01/26 02:17:20;;;;;;;;;;;25.20;99.90;;;;;;4984685;28;20037;-74
2022/01/26 02:20:13;;;;;;;2.83;0.55;;;25.50;99.90;;;;;;4984859;28;19913;-78
2022/01/26 02:55:43;;;;;;;;;;;25.40;99.90;;;;;;4990825;28;20053;-79
2022/01/26 03:01:03;;;;;;;2.00;0.30;;;25.30;99.90;;;;;;4994134;28;20543;-74
2022/01/26 03:03:40;;;;;;;3.88;0.75;;;25.30;99.90;;;;;;4993475;28;20092;-76
2022/01/26 03:06:14;;;;;;;5.63;0.88;;;25.40;99.90;;;;;;4993978;28;20031;-76
2022/01/26 03:08:49;;;;;;;1.77;0.60;;;25.50;99.90;;;;;;4993015;28;20027;-77
2022/01/26 03:11:17;;;;;;;2.22;0.40;;;25.40;99.90;;;;;;4994079;28;20452;-72
2022/01/26 03:13:54;;;;;;;3.60;0.95;;;24.90;99.90;;;;;;4985739;28;20023;-75
2022/01/26 03:16:48;;;;;;;2.63;0.68;;;24.80;99.90;;;;;;4981981;28;20054;-72
2022/01/26 03:19:31;;;;;;;1.30;0.40;;;24.60;99.90;;;;;;4983735;28;20054;-76
2022/01/26 03:35:47;;;;;;;2.95;0.57;;;25.60;99.90;;;;;;4988173;28;20117;-73
2022/01/26 03:38:26;;;;;;;3.22;1.20;;;25.80;99.90;;;;;;4987535;28;20102;-77
2022/01/26 03:41:11;;;;;;;3.58;0.90;;;25.90;99.90;;;;;;4987480;28;20034;-78
2022/01/26 03:43:38;;;;;;;;;;;25.70;99.90;;;;;;4988451;28;20031;-80
2022/01/26 03:46:06;;;;;;;3.50;0.65;;;25.50;99.90;;;;;;4984390;28;19914;-76
2022/01/26 03:48:34;;;;;;;1.60;0.40;;;25.50;99.90;;;;;;4986132;28;20026;-80
2022/01/26 03:51:03;;;;;;;2.45;0.50;;;25.60;99.90;;;;;;4983941;28;20027;-78
2022/01/26 03:53:31;;;;;;;1.27;0.55;;;25.80;99.90;;;;;;4985726;28;20062;-76
2022/01/26 03:55:58;;;;;;;1.80;0.45;;;26.20;99.90;;;;;;4985356;28;20506;-75
2022/01/26 03:58:26;;;;;;;5.00;0.50;;;26.30;99.90;;;;;;4986020;28;20034;-80
2022/01/26 04:00:54;;;;;;;10.82;1.20;;;26.60;99.90;;;;;;4984782;28;20019;-74
2022/01/26 04:03:21;;;;;;;3.72;0.70;;;26.50;99.90;;;;;;4985362;28;20030;-76
2022/01/26 04:05:49;;;;;;;2.30;1.15;;;26.70;99.90;;;;;;4985250;28;20030;-76
2022/01/26 04:08:23;;;;;;;9.20;0.85;;;26.40;99.90;;;;;;4985742;28;20468;-78
2022/01/26 04:13:19;;;;;;;1.15;0.40;;;26.40;99.90;;;;;;4985395;28;20033;-85
2022/01/26 04:15:47;;;;;;;1.88;0.57;;;26.10;99.90;;;;;;4983222;28;20019;-81
2022/01/26 04:18:19;;;;;;;2.05;0.70;;;26.10;99.90;;;;;;4984549;28;20019;-79
2022/01/26 04:20:51;;;;;;;1.52;0.35;;;26.40;99.90;;;;;;4983778;28;20039;-77
2022/01/26 04:23:35;;;;;;;2.65;0.65;;;26.80;99.90;;;;;;4984980;28;20062;-76
2022/01/26 04:26:02;;;;;;;5.25;0.90;;;27.00;99.90;;;;;;4985341;28;20037;-77
2022/01/26 04:28:40;;;;;;;2.67;0.50;;;26.90;99.90;;;;;;4985000;28;20066;-75
2022/01/26 04:31:10;;;;;;;4.95;0.57;;;26.90;99.90;;;;;;4985037;28;20026;-76
2022/01/26 04:33:37;;;;;;;3.20;0.50;;;26.40;99.90;;;;;;4986591;28;20023;-75
2022/01/26 04:36:09;;;;;;;4.30;0.43;;;25.80;99.90;;;;;;4983417;28;20023;-76
2022/01/26 04:38:43;;;;;;;2.10;0.50;;;25.40;99.90;;;;;;4984216;28;20029;-76
2022/01/26 04:43:40;;;;;;;4.38;1.23;;;25.40;99.90;;;;;;4985458;28;20027;-75
2022/01/26 04:46:08;;;;;;;3.28;0.75;;;25.50;99.90;;;;;;4983212;28;20019;-74
2022/01/26 04:48:36;;;;;;;2.42;0.70;;;25.50;99.90;;;;;;4984105;28;20030;-75
2022/01/26 04:51:03;;;;;;;1.63;0.40;;;25.60;99.90;;;;;;4985175;28;20076;-76
2022/01/26 04:53:31;;;;;;;1.88;0.50;;;25.50;99.90;;;;;;4983983;28;20030;-77
2022/01/26 04:55:58;;;;;;;1.80;0.60;;;25.50;99.90;;;;;;4982598;28;20511;-75
2022/01/26 04:58:25;;;;;;;2.15;0.55;;;25.20;99.90;;;;;;4984802;28;20014;-74
2022/01/26 05:00:53;;;;;;;2.47;0.50;;;25.70;99.90;;;;;;4983644;28;20085;-76
2022/01/26 05:03:20;;;;;;;2.40;0.80;;;25.80;99.90;;;;;;4984373;28;20037;-76
2022/01/26 05:05:47;;;;;;;3.03;0.57;;;25.70;99.90;;;;;;4982140;28;20098;-75
2022/01/26 05:08:15;;;;;;;1.42;0.40;;;25.60;99.90;;;;;;4983170;28;20033;-75
2022/01/26 05:10:44;;;;;;;4.95;0.88;;;25.70;99.90;;;;;;4984161;28;20026;-76
2022/01/26 05:13:14;;;;;;;3.03;0.85;;;25.60;99.90;;;;;;4982824;28;20030;-75
2022/01/26 05:15:42;;;;;;;6.32;0.60;;;25.30;99.90;;;;;;4983555;28;20048;-78
2022/01/26 05:18:10;;;;;;;1.58;0.50;;;25.20;99.90;;;;;;4984430;28;20054;-77
2022/01/26 05:20:37;;;;;;;3.60;0.88;;;25.50;99.90;;;;;;4983465;28;20027;-75
2022/01/26 05:23:06;;;;;;;3.25;0.60;;;25.90;99.90;;;;;;4983140;28;20129;-75
2022/01/26 05:25:33;;;;;;;2.85;0.70;;;26.20;99.90;;;;;;4983465;28;20062;-76
2022/01/26 05:28:00;;;;;;;1.63;0.50;;;26.00;99.90;;;;;;4981663;28;20491;-74
2022/01/26 05:30:28;;;;;;;4.68;0.80;;;26.10;99.90;;;;;;4984393;28;20026;-75
2022/01/26 05:32:55;;;;;;;2.80;0.60;;;26.20;99.90;;;;;;4984011;28;20088;-75
2022/01/26 05:35:22;;;;;;;1.15;0.45;;;26.30;99.90;;;;;;4984045;28;20026;-74
2022/01/26 05:37:50;;;;;;;7.13;0.77;;;26.00;99.90;;;;;;4982305;28;20464;-77
2022/01/26 05:40:17;;;;;;;1.05;0.55;;;25.70;99.90;;;;;;4983282;28;20058;-79
2022/01/26 05:42:45;;;;;;;2.10;0.40;;;25.40;99.90;;;;;;4983460;28;20053;-76
2022/01/26 05:45:25;;;;;;;2.55;0.63;;;25.10;99.90;;;;;;4983504;28;20118;-78
2022/01/26 05:47:53;;;;;;;2.80;0.40;;;25.00;99.90;;;;;;4983943;28;20026;-77
2022/01/26 05:50:21;;;;;;;2.50;0.57;;;25.10;99.90;;;;;;4983547;28;20070;-76
2022/01/26 05:52:50;;;;;;;0.95;0.30;;;25.10;99.90;;;;;;4984157;28;20030;-76
2022/01/26 05:55:17;;;;;;;2.30;0.57;;;25.10;99.90;;;;;;4982135;28;20057;-79
2022/01/26 05:57:45;;;;;;;4.55;0.90;;;25.00;99.90;;;;;;4979848;28;20023;-76
2022/01/26 06:00:13;;;;;;;1.10;0.30;;;24.70;99.90;;;;;;4980552;28;20026;-77
2022/01/26 06:02:40;;;;;;;2.35;0.40;;;24.50;99.90;;;;;;4983243;28;20114;-75
2022/01/26 06:05:08;;;;;;;2.17;0.60;;;24.30;99.90;;;;;;4984112;28;20022;-75
2022/01/26 06:07:35;;;;;;;3.67;0.40;;;24.20;99.90;;;;;;4982697;28;20018;-76
2022/01/26 06:10:04;;;;;;;1.88;0.70;;;24.30;99.90;;;;;;4983275;28;20026;-77
2022/01/26 06:12:33;;;;;;;2.15;0.82;;;24.40;99.90;;;;;;4983558;28;20426;-74
2022/01/26 06:15:05;;;;;;;2.17;0.68;;;24.40;99.90;;;;;;4983739;28;20102;-77
2022/01/26 06:17:32;;;;;;;5.38;1.10;;;24.20;99.90;;;;;;4982829;28;20049;-79
2022/01/26 06:20:00;;;;;;;6.75;0.88;;;24.00;99.90;;;;;;4980835;28;20011;-76
2022/01/26 06:22:29;;;;;;;5.15;0.57;;;23.80;99.90;;;;;;4983470;28;20122;-77
2022/01/26 06:24:58;;;;;;;3.42;0.52;;;23.80;99.90;;;;;;4982608;28;20483;-75
2022/01/26 06:27:25;;;;;;;2.63;0.70;;;23.90;99.90;;;;;;4974863;28;20030;-79
2022/01/26 06:29:53;;;;;;;3.78;0.95;;;23.80;99.90;;;;;;4987530;28;20475;-74
2022/01/26 06:32:21;;;;;;;2.00;0.68;;;23.90;99.90;;;;;;4989357;28;20034;-76
2022/01/26 06:34:48;;;;;;;4.38;0.70;;;24.10;99.90;;;;;;4986571;28;20424;-73
2022/01/26 06:37:19;;;;;;;2.80;0.60;;;24.50;99.90;;;;;;4978611;28;20023;-72
2022/01/26 06:39:46;;;;;;;3.97;0.60;;;24.80;99.90;;;;;;4979118;28;20031;-72
2022/01/26 06:42:18;;;;;;;3.58;1.00;;;25.10;99.90;;;;;;4986550;28;20026;-78
2022/01/26 06:45:11;;;;;;;8.27;0.68;;;24.80;99.90;;;;;;4990512;28;20089;-73
2022/01/26 06:50:21;;;;;;;3.13;0.57;;;24.90;99.90;;;;;;4989033;28;20538;-72
2022/01/26 06:52:49;;;;;;;4.18;1.30;;;25.20;99.90;;;;;;4977341;28;20480;-83
2022/01/26 06:55:20;;;;;;;6.68;0.70;;;25.40;99.90;;;;;;4992451;28;20117;-72
2022/01/26 06:57:48;;;;;;;2.08;0.73;;;24.90;99.90;;;;;;4980749;28;20560;-73
2022/01/26 07:00:16;;;;;;;3.00;0.80;;;24.60;99.90;;;;;;4988598;28;20030;-76
2022/01/26 07:02:43;;;;;;;1.77;0.40;;;24.60;99.90;;;;;;4976018;28;20032;-73
2022/01/26 07:05:12;;;;;;;2.15;0.50;;;24.50;99.90;;;;;;4985539;28;20050;-74
2022/01/26 07:07:41;;;;;;;2.58;0.70;;;24.60;99.90;;;;;;4983458;28;20027;-73
2022/01/26 07:10:10;;;;;;;0.90;0.40;;;24.70;99.90;;;;;;4979476;28;20027;-76
2022/01/26 07:12:37;;;;;;;1.90;0.52;;;24.90;99.90;;;;;;4988944;28;20479;-74
2022/01/26 07:23:07;;;;;;;2.45;0.63;;;25.10;99.90;;;;;;4980369;28;19930;-83
2022/01/26 07:25:35;;;;;;;2.53;0.70;;;25.10;99.90;;;;;;4978434;28;20479;-73
2022/01/26 07:28:04;;;;;;;2.15;0.57;;;24.90;99.90;;;;;;4980849;28;20034;-72
2022/01/26 07:30:35;;;;;;;2.72;0.50;;;25.00;99.90;;;;;;4978429;28;20050;-76
2022/01/26 07:33:04;;;;;;;3.22;0.60;;;24.70;99.90;;;;;;4978291;28;20481;-76
2022/01/26 07:35:33;;;;;;;4.00;0.55;;;24.10;99.90;;;;;;4976452;28;20023;-76
2022/01/26 07:38:03;;;;;;;2.72;0.50;;;23.90;99.90;;;;;;4978412;28;20075;-76
2022/01/26 07:40:30;;;;;;;2.65;0.43;;;23.60;99.90;;;;;;4980197;28;20098;-77
2022/01/26 07:42:58;;;;;;;4.97;0.68;;;23.50;99.90;;;;;;4978020;28;20031;-78
2022/01/26 07:45:25;;;;;;;2.83;0.73;;;23.40;99.90;;;;;;4982446;28;20138;-75
2022/01/26 07:47:55;;;;;;;5.80;0.95;;;23.40;99.90;;;;;;4985625;28;20022;-76
2022/01/26 07:50:23;;;;;;;3.78;0.65;;;23.30;99.90;;;;;;4983408;28;20158;-78
2022/01/26 07:52:50;;;;;;;5.13;0.90;;;23.10;99.90;;;;;;4985228;28;20101;-76
2022/01/26 07:55:20;;;;;;;4.10;0.70;;;22.90;99.90;;;;;;4983430;28;20384;-77
2022/01/26 07:57:50;;;;;;;3.70;1.00;;;22.80;99.90;;;;;;4983724;28;20793;-80
2022/01/26 08:00:19;;;;;;;4.60;0.60;;;23.00;99.90;;;;;;4983507;28;20038;-77
2022/01/26 08:02:47;;;;;;;3.22;0.80;;;23.00;99.90;;;;;;4982039;28;20399;-74
2022/01/26 08:05:15;;;;;;;4.10;0.60;;;22.70;99.90;;;;;;4991492;28;20038;-76
2022/01/26 08:07:43;;;;;;;3.20;0.52;;;22.60;99.90;;;;;;4983238;28;20026;-74
2022/01/26 08:10:11;;;;;;;1.13;0.60;;;22.50;99.90;;;;;;4995530;28;20030;-75
2022/01/26 08:12:40;;;;;;;3.92;0.70;;;22.40;99.90;;;;;;4994345;28;20113;-76
2022/01/26 08:15:08;;;;;;;3.83;1.05;;;22.40;99.90;;;;;;4995093;28;20037;-77
2022/01/26 08:17:37;;;;;;;4.60;0.70;;;22.40;99.90;;;;;;4988975;28;20121;-73
2022/01/26 08:20:07;;;;;;;2.75;0.90;;;22.30;99.90;;;;;;4984240;28;20092;-76
2022/01/26 08:22:35;;;;;;;7.47;1.15;;;22.20;99.90;;;;;;4985039;28;20563;-73
2022/01/26 08:25:02;;;;;;;3.72;0.57;;;22.20;99.90;;;;;;4985762;28;20034;-77
2022/01/26 08:27:37;;;;;;;3.92;0.60;;;22.20;99.90;;;;;;4985561;28;20023;-72
2022/01/26 08:30:09;;;;;;;9.43;1.00;;;22.10;99.90;;;;;;4976098;28;20038;-72
2022/01/26 08:32:36;;;;;;;2.92;0.60;;;22.00;99.90;;;;;;4976462;28;20023;-71
2022/01/26 08:35:04;;;;;;;1.73;0.55;;;21.90;99.90;;;;;;4976443;28;20476;-74
2022/01/26 08:37:32;;;;;;;2.75;0.73;;;21.90;99.90;;;;;;4976500;28;20027;-72
2022/01/26 08:39:59;;;;;;;3.35;0.65;;;21.90;99.90;;;;;;4976613;28;20023;-72
2022/01/26 08:42:27;;;;;;;4.22;0.95;;;21.80;99.90;;;;;;4976433;28;20081;-73
2022/01/26 08:44:54;;;;;;;2.92;0.45;;;21.80;99.90;;;;;;4976054;28;20121;-73
2022/01/26 08:47:22;;;;;;;2.72;0.80;;;21.80;99.90;;;;;;4974199;28;20023;-72
2022/01/26 08:49:49;;;;;;;5.55;0.80;;;21.70;99.90;;;;;;4973178;28;20027;-72
2022/01/26 08:52:17;;;;;;;5.07;0.90;;;21.70;99.90;;;;;;4972701;28;20027;-72
2022/01/26 08:54:44;;;;;;;5.50;0.82;;;21.60;99.90;;;;;;4976099;28;20023;-73
2022/01/26 08:57:11;;;;;;;4.07;0.93;;;21.50;99.90;;;;;;4975907;28;20022;-72
2022/01/26 08:59:40;;;;;;;2.20;0.65;;;21.40;99.90;;;;;;4976154;28;20054;-74
2022/01/26 09:02:08;;;;;;;4.00;0.82;;;21.30;99.90;;;;;;4975967;28;20019;-72
2022/01/26 09:04:36;;;;;;;5.00;0.98;;;21.30;99.90;;;;;;4976024;28;20035;-74
2022/01/26 09:07:04;;;;;;;2.50;0.63;;;21.20;99.90;;;;;;4975805;28;20077;-71
2022/01/26 09:09:42;;;;;;;3.95;0.85;;;21.20;99.90;;;;;;4974737;28;20384;-72
2022/01/26 09:12:12;;;;;;;1.20;0.60;;;21.10;99.90;;;;;;4976105;28;20027;-75
2022/01/26 09:14:39;;;;;;;2.47;0.68;;;21.00;99.90;;;;;;4988955;28;20023;-71
2022/01/26 09:17:08;;;;;;;5.78;0.95;;;21.00;99.90;;;;;;4992888;28;20034;-75
2022/01/26 09:19:36;;;;;;;4.53;1.40;;;21.00;99.90;;;;;;4975392;28;20030;-74
2022/01/26 09:22:07;;;;;;;1.85;0.50;;;21.00;99.90;;;;;;4975579;28;20034;-74
2022/01/26 09:24:36;;;;;;;2.55;0.90;;;21.00;99.90;;;;;;4975429;28;20440;-74
2022/01/26 09:27:06;;;;;;;2.83;1.20;;;20.90;99.90;;;;;;4981620;28;20025;-72
2022/01/26 09:29:34;;;;;;;1.88;0.70;;;20.90;99.90;;;;;;4983182;28;20031;-72
2022/01/26 09:32:03;;;;;;;3.80;0.95;;;20.80;99.90;;;;;;4984878;28;20391;-72
2022/01/26 09:34:35;;;;;;;6.78;1.00;;;20.80;99.90;;;;;;4984841;28;20034;-74
2022/01/26 09:37:04;;;;;;;1.88;0.45;;;20.70;99.90;;;;;;4986129;28;20101;-74
2022/01/26 09:39:32;;;;;;;2.95;0.63;;;20.70;99.90;;;;;;4986558;28;20019;-75
2022/01/26 09:42:03;;;;;;;3.53;0.65;;;20.70;99.90;;;;;;4986073;28;20023;-75
2022/01/26 09:44:31;;;;;;;1.40;0.40;;;20.60;99.90;;;;;;4986216;28;20092;-75
2022/01/26 09:46:59;;;;;;;4.07;0.70;;;20.60;99.90;;;;;;4985904;28;20052;-72
2022/01/26 09:49:32;;;;;;;2.97;0.95;;;20.50;99.90;;;;;;4985728;28;20023;-74
2022/01/26 09:52:14;;;;;;;2.58;0.75;;;20.50;99.90;;;;;;4986064;28;20023;-75
2022/01/26 09:54:44;;;;;;;7.30;1.08;;;20.50;99.90;;;;;;4985227;28;20423;-74
2022/01/26 09:57:12;;;;;;;7.18;0.73;;;20.50;99.90;;;;;;4984055;28;20537;-75
2022/01/26 09:59:39;;;;;;;6.57;0.73;;;20.40;99.90;;;;;;4986687;28;20019;-75
2022/01/26 10:02:06;;;;;;;3.47;1.25;;;20.40;99.90;;;;;;4984750;28;20030;-74
2022/01/26 10:04:39;;;;;;;3.20;1.10;;;20.30;99.90;;;;;;4985592;28;20408;-75
2022/01/26 10:17:46;;;;;;;4.38;0.95;;;20.10;99.90;;;;;;4986344;28;20391;-74
2022/01/26 10:20:19;;;;;;;6.15;0.75;;;20.10;99.90;;;;;;4984204;28;20105;-74
2022/01/26 10:22:46;;;;;;;4.15;1.30;;;20.10;99.90;;;;;;4988298;28;20508;-74
2022/01/26 10:25:17;;;;;;;2.85;0.80;;;20.00;99.90;;;;;;4989393;28;20475;-72
2022/01/26 10:27:51;;;;;;;5.00;1.23;;;20.00;99.90;;;;;;4989329;28;20018;-72
2022/01/26 10:30:21;;;;;;;3.92;0.70;;;20.00;99.90;;;;;;4989418;28;20026;-75
2022/01/26 10:32:49;;;;;;;6.90;0.80;;;19.90;99.90;;;;;;4988778;28;20097;-74
2022/01/26 10:35:17;;;;;;;6.47;1.02;;;19.90;99.90;;;;;;4989622;28;20034;-75
2022/01/26 10:37:56;;;;;;;2.83;0.85;;;19.90;99.90;;;;;;4988962;28;20048;-75
2022/01/26 10:40:27;;;;;;;1.20;0.57;;;19.90;99.90;;;;;;4989411;28;20015;-74
2022/01/26 10:43:08;;;;;;;5.55;0.75;;;19.90;99.90;;;;;;4988850;28;20121;-75
2022/01/26 10:45:47;;;;;;;10.32;1.52;;;19.90;99.90;;;;;;4988997;28;20031;-74
2022/01/26 10:48:30;;;;;;;3.22;0.90;;;19.90;99.90;;;;;;4985413;28;20026;-71
2022/01/26 10:53:51;;;;;;;2.80;1.17;;;19.80;99.90;;;;;;4989885;28;20014;-72
2022/01/26 10:56:18;;;;;;;4.03;1.05;;;19.80;99.90;;;;;;4988625;28;20398;-74
2022/01/26 10:58:46;;;;;;;7.15;1.00;;;19.80;99.90;;;;;;4988090;28;20098;-71
2022/01/26 11:01:13;;;;;;;3.33;0.93;;;19.70;99.90;;;;;;4988121;28;20034;-72
2022/01/26 11:03:41;;;;;;;3.22;1.13;;;19.70;99.90;;;;;;4988818;28;20042;-72
2022/01/26 11:06:09;;;;;;;10.93;1.00;;;19.70;99.90;;;;;;4987983;28;20078;-72
2022/01/26 11:08:41;;;;;;;4.90;0.70;;;19.70;99.90;;;;;;4981940;28;20111;-72
2022/01/26 11:11:23;;;;;;;5.68;0.70;;;19.70;99.90;;;;;;4984672;28;20034;-75
2022/01/26 11:13:50;;;;;;;3.20;0.90;;;19.70;99.90;;;;;;4982656;28;20468;-72
2022/01/26 11:16:21;;;;;;;1.88;0.60;;;19.70;99.90;;;;;;4984095;28;20030;-72
2022/01/26 11:18:54;;;;;;;10.90;1.02;;;19.60;99.90;;;;;;4983397;28;20023;-75
2022/01/26 11:21:38;;;;;;;2.05;1.00;;;19.60;99.90;;;;;;4987685;28;20022;-73
2022/01/26 11:24:12;;;;;;;5.13;1.38;;;19.60;99.90;;;;;;4986772;28;20101;-74
2022/01/26 11:26:41;;;;;;;2.28;0.60;;;19.60;99.90;;;;;;4987703;28;20046;-75
2022/01/26 11:29:21;;;;;;;5.13;1.73;;;19.50;99.90;;;;;;4984754;28;20395;-72
2022/01/26 11:31:59;;;;;;;2.72;0.85;;;19.50;99.90;;;;;;4986429;28;20024;-76
2022/01/26 11:34:28;;;;;;;5.65;0.93;;;19.50;99.90;;;;;;4986820;28;20398;-72
2022/01/26 11:36:59;;;;;;;5.65;0.98;;;19.40;99.90;;;;;;4985683;28;20388;-75
2022/01/26 11:45:16;;;;;;;3.13;1.02;;;19.30;99.90;;;;;;4973548;28;20046;-73
2022/01/26 11:48:09;;;;;;;1.58;0.77;;;19.30;99.90;;;;;;4988040;28;20022;-75
2022/01/26 11:50:42;;;;;;;6.05;0.80;;;19.20;99.90;;;;;;4985348;28;20026;-73
2022/01/26 11:53:15;;;;;;;2.75;0.90;;;19.20;99.90;;;;;;4985824;28;20058;-74
2022/01/26 11:55:48;;;;;;;4.97;0.98;;;19.20;99.90;;;;;;4985957;28;20037;-72
2022/01/26 11:58:41;;;;;;;5.20;0.90;;;19.10;99.90;;;;;;4985326;28;20094;-74
2022/01/26 12:03:48;;;;;;;4.53;1.00;;;19.10;99.90;;;;;;4985397;28;20023;-74
2022/01/26 12:06:38;;;;;;;5.63;0.70;;;19.00;99.90;;;;;;4985249;28;20026;-75
2022/01/26 12:09:07;;;;;;;3.72;1.00;;;19.10;99.90;;;;;;4986172;28;20033;-73
2022/01/26 12:11:36;;;;;;;6.32;1.00;;;19.10;99.90;;;;;;4987097;28;20041;-73
2022/01/26 12:14:19;;;;;;;5.22;0.75;;;19.10;99.90;;;;;;4985743;28;20026;-72
2022/01/26 12:16:49;;;;;;;3.35;0.70;;;19.20;99.90;;;;;;4985847;28;20041;-71
2022/01/26 12:33:21;;;;;;;2.95;0.93;;;19.50;99.90;;;;;;4984776;28;20133;-73
2022/01/26 12:35:55;;;;;;;3.75;1.42;;;19.50;99.90;;;;;;4984744;28;20030;-74
2022/01/26 12:38:41;;;;;;;4.35;0.73;;;19.50;99.90;;;;;;4985674;28;20041;-72
2022/01/26 12:43:53;;;;;;;2.38;0.88;;;19.50;99.90;;;;;;4984914;28;20059;-72
2022/01/26 12:46:24;;;;;;;4.07;1.25;;;19.50;99.90;;;;;;4986118;28;20450;-73
2022/01/26 12:48:59;;;;;;;8.18;0.85;;;19.50;99.90;;;;;;4985897;28;20077;-74
2022/01/26 12:51:28;;;;;;;7.07;1.15;;;19.50;99.90;;;;;;4984430;28;20019;-71
2022/01/26 12:53:57;;;;;;;1.55;0.45;;;19.50;99.90;;;;;;4982784;28;20029;-72
2022/01/26 12:56:28;;;;;;;6.25;1.13;;;19.40;99.90;;;;;;4982499;28;20488;-73
2022/01/26 12:59:17;;;;;;;3.97;0.70;;;19.30;99.90;;;;;;4982986;28;20042;-72
2022/01/26 13:01:52;;;;;;;5.75;0.82;;;19.20;99.90;;;;;;4986607;28;20031;-73
2022/01/26 13:04:20;;;;;;;3.38;0.88;;;19.20;99.90;;;;;;4984166;28;20034;-72
2022/01/26 13:06:52;;;;;;;9.80;1.10;;;19.20;99.90;;;;;;4984923;28;20049;-72
2022/01/26 13:09:41;;;;;;;5.55;1.02;;;19.20;99.90;;;;;;4986060;28;20081;-72
2022/01/26 13:12:10;;;;;;;5.25;1.73;;;19.20;99.90;;;;;;4985245;28;20089;-73
2022/01/26 13:14:55;;;;;;;1.65;0.88;;;19.20;99.90;;;;;;4983980;28;20022;-73
2022/01/26 13:49:21;;;;;;;6.00;0.70;;;19.10;99.90;;;;;;4988324;28;20499;-72
2022/01/26 13:54:51;;;;;;;3.95;1.02;;;19.00;99.90;;;;;;4994864;28;20023;-71
2022/01/26 14:00:08;;;;;;;3.80;1.05;;;18.90;99.90;;;;;;4994555;28;20035;-71
2022/01/26 14:02:37;;;;;;;4.07;1.08;;;18.90;99.90;;;;;;4994482;28;20018;-72
2022/01/26 14:05:06;;;;;;;3.97;0.60;;;18.90;99.90;;;;;;4994537;28;20034;-72
2022/01/26 14:07:33;;;;;;;2.88;0.82;;;18.90;99.90;;;;;;4994434;28;20014;-72
2022/01/26 14:10:01;;;;;;;9.35;0.60;;;18.90;99.90;;;;;;4994416;28;20034;-72
2022/01/26 14:12:33;;;;;;;5.40;1.15;;;18.80;99.90;;;;;;4994288;28;20026;-72
2022/01/26 14:15:06;;;;;;;3.90;1.42;;;18.80;99.90;;;;;;4994213;28;20031;-71
2022/01/26 14:25:30;;;;;;;4.43;0.95;;;18.60;99.90;;;;;;4975115;28;20050;-71
2022/01/26 14:28:06;;;;;;;6.97;0.80;;;18.60;99.90;;;;;;4994277;28;20482;-72
2022/01/26 14:30:54;;;;;;;6.68;1.27;;;18.60;99.90;;;;;;4994327;28;20030;-71
2022/01/26 14:33:41;;;;;;;4.28;0.63;;;18.50;99.90;;;;;;4994673;28;20364;-71
2022/01/26 14:36:26;;;;;;;3.30;0.70;;;18.50;99.90;;;;;;4994009;28;20023;-71
2022/01/26 15:33:09;;;;;;;3.43;0.67;;;17.90;99.90;;;;;;4997472;28;20065;-71
2022/01/26 15:35:23;;;;;;;2.10;0.90;;;17.90;99.90;;;;;;4996975;28;20022;-71
2022/01/26 15:43:35;;;;;;;5.25;1.00;;;18.00;99.90;;;;;;4997067;28;20027;-71
2022/01/26 15:49:19;;;;;;;4.70;1.33;;;18.10;99.90;;;;;;4997353;28;20090;-71
2022/01/26 16:05:52;;;;;;;2.33;0.88;;;18.20;99.90;;;;;;4996441;28;20387;-71
2022/01/26 16:08:26;;;;;;;3.30;1.05;;;18.30;99.90;;;;;;4996658;28;20034;-71
2022/01/26 16:19:43;;;;;;;4.13;0.95;;;18.50;99.90;;;;;;4996914;28;20034;-70
2022/01/26 16:26:18;;;;;;;5.93;1.23;;;18.50;99.90;;;;;;4996139;28;20052;-71
2022/01/26 16:28:27;;;;;;;5.70;1.00;;;18.60;99.90;;;;;;4996654;28;20526;-71
2022/01/26 17:43:17;;;;;;;1.17;0.52;;;18.40;99.90;;;;;;4983670;28;21483;-71
2022/01/26 17:46:40;;;;;;;3.10;0.93;;;18.40;99.90;;;;;;4975587;28;20057;-71
2022/01/26 18:16:44;;;;;;;6.13;0.80;;;18.40;99.90;;;;;;4994302;28;20629;-71
2022/01/26 18:32:57;;;;;;;1.77;0.50;;;18.00;99.90;;;;;;4994486;28;20062;-71
2022/01/26 18:46:24;;;;;;;1.38;0.60;;;17.90;99.90;;;;;;4994318;28;20065;-71
2022/01/26 18:49:21;;;;;;;4.25;1.20;;;17.80;99.90;;;;;;4994061;28;20173;-71
2022/01/26 18:51:55;;;;;;;3.20;1.00;;;17.80;99.90;;;;;;4994069;28;20107;-71
2022/01/26 18:54:25;;;;;;;2.30;0.82;;;17.80;99.90;;;;;;4994140;28;20267;-70
2022/01/26 18:57:00;;;;;;;3.70;1.05;;;17.70;99.90;;;;;;4993967;28;20371;-72
2022/01/26 18:59:28;;;;;;;9.30;1.17;;;17.60;99.90;;;;;;4993866;28;20062;-72
2022/01/26 19:01:57;;;;;;;1.92;0.63;;;17.60;99.90;;;;;;4994306;28;20479;-71
2022/01/26 19:04:37;;;;;;;8.05;0.73;;;17.60;99.90;;;;;;4993729;28;20093;-72
2022/01/26 19:07:06;;;;;;;3.20;1.17;;;17.60;99.90;;;;;;4982474;28;20023;-71
2022/01/26 19:09:39;;;;;;;1.40;0.43;;;17.60;99.90;;;;;;4983365;28;20112;-71
2022/01/26 19:12:10;;;;;;;3.45;0.85;;;17.60;99.90;;;;;;4984549;28;20022;-71
2022/01/26 19:14:41;;;;;;;8.05;0.90;;;17.60;99.90;;;;;;4983288;28;20105;-76
2022/01/26 19:17:16;;;;;;;3.53;0.95;;;17.70;99.90;;;;;;4984163;28;20014;-71
2022/01/26 19:20:05;;;;;;;3.10;0.60;;;17.60;99.90;;;;;;4984549;28;20380;-73
2022/01/26 19:25:10;;;;;;;4.47;1.00;;;17.70;99.90;;;;;;4984162;28;20037;-71
2022/01/26 19:43:51;;;;;;;3.85;0.85;;;18.10;99.90;;;;;;4986126;28;20536;-73
2022/01/26 19:52:07;;;;;;;5.70;0.93;;;18.30;99.90;;;;;;4988076;28;20045;-72
2022/01/26 19:54:37;;;;;;;3.58;1.02;;;18.40;99.90;;;;;;4987545;28;20026;-71
2022/01/26 19:57:05;;;;;;;1.17;0.88;;;18.40;99.90;;;;;;4987438;28;20026;-72
2022/01/26 19:59:33;;;;;;;9.40;1.02;;;18.50;99.90;;;;;;4986293;28;20023;-72
2022/01/26 20:02:01;;;;;;;1.83;0.63;;;18.40;99.90;;;;;;4985423;28;20039;-72